Time;durP1;ratioP1;P1;durP2;ratioP2;P2;SDS_P1;SDS_P2;PMS_P1;PMS_P2;Temp;Humidity;BMP_temperature;BMP_pressure;BME280_temperature;BME280_humidity;BME280_pressure;Samples;Min_cycle;Max_cycle;Signal;HPM_P1;HPM_P2
2023/03/15 00:01:56;;;;;;;9.75;6.55;;;;;;;;;;5012086;28;20120;-68
2023/03/15 00:04:23;;;;;;;14.80;8.02;;;;;;;;;;5011188;28;20112;-67
2023/03/15 00:06:49;;;;;;;11.30;6.97;;;;;;;;;;5012157;28;20397;-67
2023/03/15 00:09:15;;;;;;;15.23;7.13;;;;;;;;;;5011971;28;20120;-67
2023/03/15 00:11:41;;;;;;;10.98;6.57;;;;;;;;;;5012282;28;20046;-67
2023/03/15 00:14:07;;;;;;;12.70;7.55;;;;;;;;;;5012030;28;20026;-67
2023/03/15 00:16:33;;;;;;;10.50;6.72;;;;;;;;;;5011904;28;20124;-68
2023/03/15 00:18:58;;;;;;;13.45;6.68;;;;;;;;;;5012011;28;20105;-67
2023/03/15 00:21:24;;;;;;;16.83;6.88;;;;;;;;;;5009604;28;20041;-68
2023/03/15 00:23:50;;;;;;;14.30;6.35;;;;;;;;;;5010833;28;20502;-67
2023/03/15 00:26:16;;;;;;;9.70;5.80;;;;;;;;;;4991357;28;20094;-66
2023/03/15 00:28:42;;;;;;;8.38;5.70;;;;;;;;;;5008585;28;20483;-69
2023/03/15 00:31:18;;;;;;;10.38;6.30;;;;;;;;;;5010374;28;20048;-67
2023/03/15 00:33:44;;;;;;;12.77;7.07;;;;;;;;;;5003031;28;20034;-67
2023/03/15 00:36:10;;;;;;;14.02;8.15;;;;;;;;;;4997525;28;20017;-67
2023/03/15 00:38:38;;;;;;;18.27;8.57;;;;;;;;;;5001274;28;20081;-67
2023/03/15 00:41:13;;;;;;;13.80;8.02;;;;;;;;;;4993285;28;20034;-67
2023/03/15 00:43:40;;;;;;;15.90;8.63;;;;;;;;;;5014551;28;20038;-68
2023/03/15 00:46:06;;;;;;;12.23;7.93;;;;;;;;;;4989171;28;20037;-67
2023/03/15 00:48:34;;;;;;;11.80;6.82;;;;;;;;;;5008476;28;20061;-68
2023/03/15 00:51:02;;;;;;;13.95;7.70;;;;;;;;;;5010883;28;20097;-67
2023/03/15 00:53:28;;;;;;;18.50;8.40;;;;;;;;;;5010681;28;20033;-67
2023/03/15 00:55:54;;;;;;;16.42;8.20;;;;;;;;;;4993817;28;20026;-67
2023/03/15 00:58:20;;;;;;;14.02;7.75;;;;;;;;;;5013388;28;20123;-67
2023/03/15 01:00:45;;;;;;;14.63;8.80;;;;;;;;;;5011889;28;20026;-68
2023/03/15 01:03:11;;;;;;;16.13;8.75;;;;;;;;;;4995591;28;20046;-67
2023/03/15 01:05:37;;;;;;;14.25;8.02;;;;;;;;;;5012816;28;20396;-67
2023/03/15 01:08:03;;;;;;;19.92;8.93;;;;;;;;;;4994847;28;20030;-67
2023/03/15 01:10:29;;;;;;;16.35;8.85;;;;;;;;;;5005508;28;20022;-67
2023/03/15 01:12:55;;;;;;;12.93;8.68;;;;;;;;;;4998097;28;20037;-67
2023/03/15 01:15:21;;;;;;;14.25;8.27;;;;;;;;;;5011224;28;20041;-68
2023/03/15 01:17:46;;;;;;;12.27;7.82;;;;;;;;;;4998444;28;20037;-68
2023/03/15 01:20:13;;;;;;;14.18;7.85;;;;;;;;;;4996632;28;20029;-68
2023/03/15 01:22:41;;;;;;;15.30;9.02;;;;;;;;;;5013011;28;20042;-68
2023/03/15 01:25:08;;;;;;;11.60;8.10;;;;;;;;;;4995619;28;20018;-68
2023/03/15 01:27:34;;;;;;;12.85;7.85;;;;;;;;;;5010792;28;20388;-68
2023/03/15 01:30:00;;;;;;;13.23;8.45;;;;;;;;;;4980363;28;20030;-68
2023/03/15 01:32:26;;;;;;;14.45;7.68;;;;;;;;;;4996308;28;20035;-68
2023/03/15 01:34:51;;;;;;;13.40;8.18;;;;;;;;;;4996345;28;20536;-67
2023/03/15 01:37:17;;;;;;;15.93;9.40;;;;;;;;;;5011557;28;20117;-68
2023/03/15 01:39:44;;;;;;;18.25;8.82;;;;;;;;;;4979565;28;20088;-67
2023/03/15 01:42:10;;;;;;;17.63;10.45;;;;;;;;;;4997924;28;20041;-68
2023/03/15 01:44:58;;;;;;;18.45;10.13;;;;;;;;;;4996402;28;20037;-66
2023/03/15 01:47:25;;;;;;;19.05;9.80;;;;;;;;;;5002455;28;20038;-67
2023/03/15 01:50:03;;;;;;;17.38;9.80;;;;;;;;;;4995867;28;20026;-68
2023/03/15 01:52:35;;;;;;;20.50;10.80;;;;;;;;;;4996736;28;20037;-68
2023/03/15 01:55:13;;;;;;;20.83;10.30;;;;;;;;;;5013653;28;20526;-68
2023/03/15 01:57:57;;;;;;;18.45;9.63;;;;;;;;;;4996247;28;20053;-67
2023/03/15 02:00:26;;;;;;;18.50;10.38;;;;;;;;;;4994487;28;20081;-68
2023/03/15 02:03:03;;;;;;;18.80;10.10;;;;;;;;;;4995578;28;20095;-68
2023/03/15 02:05:34;;;;;;;15.40;10.15;;;;;;;;;;4995556;28;20025;-67
2023/03/15 02:08:06;;;;;;;26.25;10.43;;;;;;;;;;4999918;28;20037;-68
2023/03/15 02:10:39;;;;;;;21.92;10.95;;;;;;;;;;4995779;28;20034;-67
2023/03/15 02:13:06;;;;;;;21.85;11.40;;;;;;;;;;4987240;28;20120;-67
2023/03/15 02:15:32;;;;;;;20.08;10.63;;;;;;;;;;5031572;28;20021;-67
2023/03/15 02:18:00;;;;;;;18.48;11.02;;;;;;;;;;4999690;28;20030;-67
2023/03/15 02:20:52;;;;;;;22.13;12.48;;;;;;;;;;5028044;28;20025;-68
2023/03/15 02:23:20;;;;;;;22.55;13.32;;;;;;;;;;5009472;28;20128;-67
2023/03/15 02:26:23;;;;;;;24.58;14.10;;;;;;;;;;4978823;28;20018;-67
2023/03/15 02:28:52;;;;;;;25.40;14.35;;;;;;;;;;4986962;28;20120;-67
2023/03/15 02:31:20;;;;;;;28.70;16.27;;;;;;;;;;4991577;28;20110;-68
2023/03/15 02:33:49;;;;;;;30.35;19.27;;;;;;;;;;5002761;28;20038;-68
2023/03/15 02:36:22;;;;;;;25.20;17.75;;;;;;;;;;5007922;28;20084;-67
2023/03/15 02:38:48;;;;;;;26.08;17.60;;;;;;;;;;5028296;28;20037;-68
2023/03/15 02:41:18;;;;;;;27.52;18.55;;;;;;;;;;5028629;28;20034;-67
2023/03/15 02:43:47;;;;;;;28.45;17.55;;;;;;;;;;5028687;28;20403;-67
2023/03/15 02:46:13;;;;;;;29.55;17.73;;;;;;;;;;4995659;28;20022;-67
2023/03/15 02:48:40;;;;;;;24.88;15.80;;;;;;;;;;5027791;28;20472;-67
2023/03/15 02:51:06;;;;;;;23.75;15.73;;;;;;;;;;5023010;28;20532;-67
2023/03/15 02:53:32;;;;;;;21.88;15.43;;;;;;;;;;4994493;28;20080;-67
2023/03/15 02:55:58;;;;;;;22.35;15.27;;;;;;;;;;4995085;28;20022;-67
2023/03/15 02:58:24;;;;;;;28.30;16.42;;;;;;;;;;5010832;28;20511;-67
2023/03/15 03:00:52;;;;;;;23.48;15.75;;;;;;;;;;5012856;28;20063;-67
2023/03/15 03:03:18;;;;;;;25.23;16.25;;;;;;;;;;5009444;28;20135;-67
2023/03/15 03:05:44;;;;;;;28.33;16.45;;;;;;;;;;5012677;28;20101;-67
2023/03/15 03:08:10;;;;;;;27.88;17.00;;;;;;;;;;5007053;28;20029;-67
2023/03/15 03:10:36;;;;;;;29.23;17.10;;;;;;;;;;4998015;28;20033;-68
2023/03/15 03:13:01;;;;;;;23.63;14.75;;;;;;;;;;5014152;28;20183;-67
2023/03/15 03:15:32;;;;;;;23.65;13.77;;;;;;;;;;5013874;28;20036;-67
2023/03/15 03:17:57;;;;;;;23.17;15.07;;;;;;;;;;5012975;28;20070;-67
2023/03/15 03:20:23;;;;;;;23.05;13.15;;;;;;;;;;5014089;28;20539;-68
2023/03/15 03:22:49;;;;;;;20.33;13.07;;;;;;;;;;5004772;28;20041;-68
2023/03/15 03:25:16;;;;;;;20.60;12.73;;;;;;;;;;4994471;28;20026;-68
2023/03/15 03:27:42;;;;;;;22.15;12.90;;;;;;;;;;5010176;28;20041;-67
2023/03/15 03:30:12;;;;;;;19.17;12.57;;;;;;;;;;4993913;28;20391;-67
2023/03/15 03:32:42;;;;;;;21.95;13.80;;;;;;;;;;5026431;28;20045;-67
2023/03/15 03:35:08;;;;;;;19.63;12.25;;;;;;;;;;4993084;28;20025;-69
2023/03/15 03:37:34;;;;;;;21.95;12.98;;;;;;;;;;5010296;28;20026;-69
2023/03/15 03:40:08;;;;;;;;;;;;;;;;;;4994857;28;20025;-68
2023/03/15 03:42:35;;;;;;;18.58;11.75;;;;;;;;;;4994601;28;19955;-68
2023/03/15 03:45:01;;;;;;;23.55;12.85;;;;;;;;;;4994494;28;20050;-68
2023/03/15 03:47:35;;;;;;;18.88;11.75;;;;;;;;;;5010699;28;20388;-68
2023/03/15 03:50:01;;;;;;;19.48;11.23;;;;;;;;;;5011264;28;20034;-67
2023/03/15 03:52:26;;;;;;;20.92;11.52;;;;;;;;;;5011757;28;20025;-68
2023/03/15 03:54:59;;;;;;;20.63;12.52;;;;;;;;;;5005044;28;20137;-68
2023/03/15 03:57:25;;;;;;;21.08;11.98;;;;;;;;;;5026727;28;20125;-67
2023/03/15 03:59:51;;;;;;;23.30;11.85;;;;;;;;;;5011481;28;20053;-67
2023/03/15 04:02:17;;;;;;;17.67;11.85;;;;;;;;;;5014226;28;20417;-67
2023/03/15 04:04:53;;;;;;;19.13;11.88;;;;;;;;;;5013728;28;20036;-67
2023/03/15 04:07:20;;;;;;;23.92;11.40;;;;;;;;;;4994772;28;20022;-67
2023/03/15 04:09:46;;;;;;;20.23;11.38;;;;;;;;;;4985731;28;20033;-67
2023/03/15 04:12:12;;;;;;;19.25;10.63;;;;;;;;;;4994003;28;20554;-68
2023/03/15 04:14:41;;;;;;;17.30;11.27;;;;;;;;;;4993661;28;20179;-68
2023/03/15 04:17:10;;;;;;;17.98;11.32;;;;;;;;;;4987941;28;20042;-68
2023/03/15 04:19:36;;;;;;;19.48;10.32;;;;;;;;;;4994573;28;20034;-68
2023/03/15 04:22:06;;;;;;;17.35;9.77;;;;;;;;;;4993442;28;20488;-68
2023/03/15 04:24:51;;;;;;;16.80;9.55;;;;;;;;;;4991958;28;20045;-70
2023/03/15 04:27:34;;;;;;;26.50;11.05;;;;;;;;;;4993606;28;20034;-68
2023/03/15 04:30:09;;;;;;;17.95;9.60;;;;;;;;;;4995827;28;20278;-67
2023/03/15 04:33:02;;;;;;;18.25;10.35;;;;;;;;;;5008712;28;20084;-67
2023/03/15 04:35:45;;;;;;;19.30;10.07;;;;;;;;;;5010593;28;20121;-68
2023/03/15 04:38:31;;;;;;;18.02;9.93;;;;;;;;;;5011420;28;20060;-67
2023/03/15 04:41:25;;;;;;;25.20;10.68;;;;;;;;;;4998775;28;20419;-69
2023/03/15 04:44:25;;;;;;;17.70;9.05;;;;;;;;;;5007446;28;20077;-68
2023/03/15 04:47:03;;;;;;;17.73;8.52;;;;;;;;;;4997842;28;20025;-68
2023/03/15 04:49:47;;;;;;;16.80;7.93;;;;;;;;;;5015287;28;20096;-68
2023/03/15 04:52:27;;;;;;;13.70;8.82;;;;;;;;;;4997635;28;20026;-67
2023/03/15 04:55:13;;;;;;;16.52;8.73;;;;;;;;;;5013725;28;20042;-67
2023/03/15 04:58:05;;;;;;;16.02;10.15;;;;;;;;;;5006287;28;20041;-67
2023/03/15 05:00:54;;;;;;;15.95;8.23;;;;;;;;;;4995063;28;20413;-68
2023/03/15 05:03:22;;;;;;;15.75;8.45;;;;;;;;;;5014798;28;20025;-68
2023/03/15 05:06:06;;;;;;;22.88;9.88;;;;;;;;;;4999181;28;20396;-69
2023/03/15 05:08:51;;;;;;;23.58;10.75;;;;;;;;;;5015057;28;20252;-67
2023/03/15 05:11:32;;;;;;;16.08;10.18;;;;;;;;;;4995653;28;20030;-68
2023/03/15 05:14:20;;;;;;;14.25;9.40;;;;;;;;;;4990006;28;20479;-66
2023/03/15 05:17:06;;;;;;;19.77;10.90;;;;;;;;;;4997175;28;20046;-68
2023/03/15 05:19:50;;;;;;;16.63;10.18;;;;;;;;;;5006599;28;20049;-68
2023/03/15 05:22:35;;;;;;;18.63;10.02;;;;;;;;;;4995663;28;20092;-68
2023/03/15 05:25:20;;;;;;;17.10;10.07;;;;;;;;;;5014000;28;20053;-69
2023/03/15 05:28:17;;;;;;;18.17;9.98;;;;;;;;;;5005627;28;20042;-71
2023/03/15 05:31:01;;;;;;;19.63;10.50;;;;;;;;;;5014919;28;20057;-71
2023/03/15 05:33:45;;;;;;;20.08;11.32;;;;;;;;;;5014315;28;20097;-70
2023/03/15 05:36:23;;;;;;;27.35;12.10;;;;;;;;;;5009916;28;20034;-71
2023/03/15 05:39:15;;;;;;;19.02;12.00;;;;;;;;;;4999180;28;20049;-71
2023/03/15 05:42:07;;;;;;;27.30;12.52;;;;;;;;;;4993817;28;20065;-71
2023/03/15 05:44:52;;;;;;;33.58;13.73;;;;;;;;;;5009429;28;20100;-71
2023/03/15 05:47:47;;;;;;;29.10;13.35;;;;;;;;;;5013817;28;20037;-70
2023/03/15 05:50:33;;;;;;;33.15;13.07;;;;;;;;;;4996682;28;20040;-71
2023/03/15 05:53:16;;;;;;;27.67;13.13;;;;;;;;;;5014532;28;20453;-71
2023/03/15 05:56:05;;;;;;;27.35;12.25;;;;;;;;;;5013621;28;20488;-71
2023/03/15 05:58:52;;;;;;;27.15;11.50;;;;;;;;;;5008871;28;20034;-71
2023/03/15 06:01:37;;;;;;;27.80;14.48;;;;;;;;;;5013944;28;20416;-69
2023/03/15 06:04:14;;;;;;;30.85;14.50;;;;;;;;;;5004478;28;20034;-69
2023/03/15 06:06:40;;;;;;;29.67;17.33;;;;;;;;;;4992917;28;20045;-71
2023/03/15 06:09:11;;;;;;;24.42;14.20;;;;;;;;;;4995459;28;20534;-72
2023/03/15 06:11:38;;;;;;;24.10;14.48;;;;;;;;;;5008025;28;20500;-71
2023/03/15 06:14:06;;;;;;;27.63;14.75;;;;;;;;;;4995285;28;20030;-70
2023/03/15 06:16:43;;;;;;;25.08;13.77;;;;;;;;;;4979548;28;20034;-70
2023/03/15 06:19:09;;;;;;;28.15;14.02;;;;;;;;;;4993417;28;20033;-71
2023/03/15 06:21:34;;;;;;;21.70;12.77;;;;;;;;;;5011523;28;20036;-71
2023/03/15 06:24:03;;;;;;;22.65;12.52;;;;;;;;;;4994848;28;20029;-71
2023/03/15 06:26:28;;;;;;;21.27;12.57;;;;;;;;;;4994883;28;20471;-71
2023/03/15 06:28:59;;;;;;;24.23;12.50;;;;;;;;;;5011501;28;20053;-71
2023/03/15 06:31:25;;;;;;;32.03;17.27;;;;;;;;;;4995377;28;20033;-70
2023/03/15 06:34:02;;;;;;;30.95;17.92;;;;;;;;;;5013068;28;20042;-70
2023/03/15 06:36:30;;;;;;;35.65;16.63;;;;;;;;;;4999366;28;20594;-71
2023/03/15 06:38:55;;;;;;;28.10;15.85;;;;;;;;;;4979253;28;20037;-69
2023/03/15 06:41:21;;;;;;;20.40;12.25;;;;;;;;;;4994805;28;20080;-70
2023/03/15 06:43:51;;;;;;;24.33;13.23;;;;;;;;;;4994801;28;20048;-71
2023/03/15 06:46:17;;;;;;;31.50;15.50;;;;;;;;;;5012502;28;20030;-69
2023/03/15 06:48:42;;;;;;;42.10;19.67;;;;;;;;;;4994785;28;20061;-70
2023/03/15 06:51:10;;;;;;;35.53;14.60;;;;;;;;;;4994614;28;20026;-70
2023/03/15 06:53:36;;;;;;;44.17;19.77;;;;;;;;;;4994605;28;20029;-70
2023/03/15 06:56:02;;;;;;;97.03;37.38;;;;;;;;;;5011614;28;20038;-70
2023/03/15 06:58:28;;;;;;;83.55;34.08;;;;;;;;;;5011796;28;20369;-69
2023/03/15 07:00:54;;;;;;;59.47;26.52;;;;;;;;;;5012597;28;20101;-70
2023/03/15 07:03:21;;;;;;;66.35;30.77;;;;;;;;;;5012527;28;20464;-70
2023/03/15 07:05:51;;;;;;;51.70;22.55;;;;;;;;;;5010551;28;20038;-71
2023/03/15 07:08:18;;;;;;;58.05;26.77;;;;;;;;;;5011790;28;20030;-70
2023/03/15 07:10:44;;;;;;;69.25;31.05;;;;;;;;;;5012494;28;20072;-70
2023/03/15 07:13:10;;;;;;;75.15;29.23;;;;;;;;;;5011516;28;20049;-69
2023/03/15 07:15:36;;;;;;;67.00;27.77;;;;;;;;;;5011757;28;20093;-69
2023/03/15 07:18:02;;;;;;;48.25;22.20;;;;;;;;;;5012285;28;20065;-71
2023/03/15 07:20:27;;;;;;;49.03;23.67;;;;;;;;;;5011831;28;20033;-70
2023/03/15 07:22:53;;;;;;;77.13;33.13;;;;;;;;;;5012397;28;20034;-71
2023/03/15 07:25:22;;;;;;;69.30;28.73;;;;;;;;;;5012189;28;20439;-69
2023/03/15 07:27:49;;;;;;;62.70;27.73;;;;;;;;;;5011271;28;20563;-71
2023/03/15 07:30:16;;;;;;;58.60;23.33;;;;;;;;;;5011941;28;20332;-71
2023/03/15 07:32:42;;;;;;;32.55;17.23;;;;;;;;;;5011680;28;20041;-71
2023/03/15 07:35:08;;;;;;;33.20;14.30;;;;;;;;;;5011552;28;20022;-70
2023/03/15 07:37:33;;;;;;;22.95;12.30;;;;;;;;;;5011364;28;20030;-70
2023/03/15 07:40:08;;;;;;;22.70;13.98;;;;;;;;;;5011488;28;20383;-70
2023/03/15 07:42:37;;;;;;;23.85;13.15;;;;;;;;;;5011355;28;20046;-68
2023/03/15 07:45:05;;;;;;;21.13;11.95;;;;;;;;;;5010680;28;20032;-70
2023/03/15 07:47:30;;;;;;;21.13;13.52;;;;;;;;;;4993275;28;20084;-70
2023/03/15 07:49:56;;;;;;;20.73;12.80;;;;;;;;;;5011172;28;20128;-70
2023/03/15 07:52:22;;;;;;;21.42;14.02;;;;;;;;;;5011261;28;20049;-70
2023/03/15 07:54:48;;;;;;;21.52;13.70;;;;;;;;;;4993437;28;20018;-69
2023/03/15 07:57:13;;;;;;;18.98;12.90;;;;;;;;;;5011388;28;20358;-70
2023/03/15 07:59:39;;;;;;;19.40;11.95;;;;;;;;;;5011041;28;20017;-69
2023/03/15 08:02:05;;;;;;;20.58;12.75;;;;;;;;;;5011477;28;20056;-70
2023/03/15 08:04:31;;;;;;;23.15;13.57;;;;;;;;;;4992856;28;20029;-70
2023/03/15 08:06:58;;;;;;;20.75;12.25;;;;;;;;;;5010810;28;20033;-70
2023/03/15 08:09:24;;;;;;;22.90;11.82;;;;;;;;;;5011112;28;20029;-69
2023/03/15 08:11:50;;;;;;;22.42;12.07;;;;;;;;;;5011070;28;20301;-71
2023/03/15 08:14:15;;;;;;;17.30;10.70;;;;;;;;;;5011000;28;20362;-71
2023/03/15 08:16:41;;;;;;;18.83;11.20;;;;;;;;;;5011123;28;20045;-70
2023/03/15 08:19:06;;;;;;;16.38;9.85;;;;;;;;;;5011060;28;20144;-69
2023/03/15 08:21:32;;;;;;;24.95;11.32;;;;;;;;;;4993203;28;20041;-71
2023/03/15 08:23:59;;;;;;;21.17;10.82;;;;;;;;;;5010764;28;20025;-71
2023/03/15 08:26:25;;;;;;;24.55;12.63;;;;;;;;;;5011007;28;20034;-70
2023/03/15 08:28:51;;;;;;;22.13;11.95;;;;;;;;;;5011114;28;20447;-71
2023/03/15 08:31:18;;;;;;;23.50;13.10;;;;;;;;;;5010686;28;20502;-70
2023/03/15 08:33:43;;;;;;;25.48;14.65;;;;;;;;;;4993245;28;20025;-69
2023/03/15 08:36:09;;;;;;;32.72;17.10;;;;;;;;;;4993480;28;20065;-70
2023/03/15 08:38:35;;;;;;;32.63;18.02;;;;;;;;;;5010682;28;20080;-69
2023/03/15 08:41:02;;;;;;;28.08;17.33;;;;;;;;;;5011125;28;20033;-70
2023/03/15 08:43:28;;;;;;;29.00;17.40;;;;;;;;;;5010808;28;20025;-68
2023/03/15 08:45:53;;;;;;;21.95;14.57;;;;;;;;;;5010961;28;20123;-70
2023/03/15 08:48:19;;;;;;;25.23;15.02;;;;;;;;;;5010797;28;20025;-70
2023/03/15 08:50:45;;;;;;;27.35;16.08;;;;;;;;;;5010422;28;20030;-69
2023/03/15 08:53:10;;;;;;;23.33;16.10;;;;;;;;;;5010932;28;20026;-69
2023/03/15 08:55:37;;;;;;;26.15;14.45;;;;;;;;;;5010918;28;20432;-68
2023/03/15 08:58:04;;;;;;;23.83;15.15;;;;;;;;;;5010869;28;20021;-70
2023/03/15 09:00:30;;;;;;;23.48;15.55;;;;;;;;;;5010892;28;20472;-69
2023/03/15 09:02:56;;;;;;;23.65;15.60;;;;;;;;;;5010443;28;20475;-70
2023/03/15 09:05:24;;;;;;;25.45;16.40;;;;;;;;;;5010818;28;20041;-70
2023/03/15 09:07:51;;;;;;;24.42;15.73;;;;;;;;;;5010339;28;20030;-69
2023/03/15 09:10:18;;;;;;;24.55;15.20;;;;;;;;;;5011054;28;20041;-71
2023/03/15 09:12:47;;;;;;;27.08;13.93;;;;;;;;;;5010793;28;20025;-71
2023/03/15 09:15:13;;;;;;;24.00;14.05;;;;;;;;;;5010236;28;20096;-70
2023/03/15 09:17:40;;;;;;;23.40;14.25;;;;;;;;;;5012548;28;20026;-70
2023/03/15 09:20:13;;;;;;;20.88;13.43;;;;;;;;;;5014392;28;20057;-69
2023/03/15 09:22:42;;;;;;;25.92;11.75;;;;;;;;;;5014078;28;20128;-69
2023/03/15 09:25:09;;;;;;;18.27;11.63;;;;;;;;;;5014112;28;20254;-69
2023/03/15 09:27:35;;;;;;;16.88;12.18;;;;;;;;;;5013800;28;20049;-69
2023/03/15 09:30:01;;;;;;;16.80;11.60;;;;;;;;;;5014117;28;20023;-71
2023/03/15 09:32:27;;;;;;;20.05;11.68;;;;;;;;;;5014144;28;20040;-68
2023/03/15 09:34:53;;;;;;;21.02;10.55;;;;;;;;;;5013422;28;20436;-68
2023/03/15 09:37:20;;;;;;;42.67;11.80;;;;;;;;;;5013944;28;20441;-69
2023/03/15 09:39:46;;;;;;;18.65;10.55;;;;;;;;;;5013841;28;20025;-70
2023/03/15 09:42:21;;;;;;;17.42;9.75;;;;;;;;;;4995990;28;20120;-69
2023/03/15 09:45:03;;;;;;;19.88;8.38;;;;;;;;;;5013503;28;20484;-69
2023/03/15 09:48:04;;;;;;;16.33;7.95;;;;;;;;;;5013722;28;20569;-70
2023/03/15 09:50:45;;;;;;;20.63;8.63;;;;;;;;;;5013851;28;20125;-69
2023/03/15 09:53:51;;;;;;;22.85;8.93;;;;;;;;;;4995826;28;20403;-70
2023/03/15 09:56:32;;;;;;;50.78;14.23;;;;;;;;;;4952347;28;20125;-69
2023/03/15 09:59:03;;;;;;;29.02;9.90;;;;;;;;;;5009328;28;20125;-68
2023/03/15 10:01:37;;;;;;;32.17;9.93;;;;;;;;;;5028807;28;20054;-70
2023/03/15 10:04:27;;;;;;;30.00;7.20;;;;;;;;;;5013331;28;20036;-69
2023/03/15 10:06:57;;;;;;;46.70;9.43;;;;;;;;;;5013229;28;20116;-69
2023/03/15 10:09:26;;;;;;;30.17;8.55;;;;;;;;;;4994836;28;20133;-70
2023/03/15 10:12:02;;;;;;;17.75;7.20;;;;;;;;;;5013391;28;20470;-70
2023/03/15 10:14:45;;;;;;;20.02;8.38;;;;;;;;;;5013310;28;20042;-70
2023/03/15 10:17:14;;;;;;;16.20;7.40;;;;;;;;;;5013684;28;20356;-69
2023/03/15 10:19:53;;;;;;;40.33;10.25;;;;;;;;;;5012998;28;20033;-69
2023/03/15 10:22:47;;;;;;;14.55;6.78;;;;;;;;;;5013318;28;20041;-70
2023/03/15 10:25:15;;;;;;;;;;;;;;;;;;5014099;28;20407;-70
2023/03/15 10:27:54;;;;;;;13.75;7.80;;;;;;;;;;5012933;28;19917;-70
2023/03/15 10:30:21;;;;;;;16.30;8.43;;;;;;;;;;5012928;28;20041;-70
2023/03/15 10:33:02;;;;;;;15.65;8.52;;;;;;;;;;5012784;28;20030;-70
2023/03/15 10:35:28;;;;;;;20.50;8.35;;;;;;;;;;5012378;28;20069;-70
2023/03/15 10:37:54;;;;;;;14.27;7.95;;;;;;;;;;5013406;28;20058;-70
2023/03/15 10:40:44;;;;;;;13.65;7.88;;;;;;;;;;5012682;28;20026;-70
2023/03/15 10:43:18;;;;;;;15.70;7.72;;;;;;;;;;5012019;28;20114;-70
2023/03/15 10:46:06;;;;;;;13.57;7.88;;;;;;;;;;5011377;28;20061;-70
2023/03/15 10:48:34;;;;;;;13.10;8.07;;;;;;;;;;5027512;28;20395;-69
2023/03/15 10:51:06;;;;;;;14.13;8.57;;;;;;;;;;5012496;28;20018;-69
2023/03/15 10:53:32;;;;;;;13.90;8.52;;;;;;;;;;5011290;28;20140;-70
2023/03/15 10:56:11;;;;;;;11.63;7.55;;;;;;;;;;5012525;28;20076;-70
2023/03/15 10:58:41;;;;;;;13.45;7.68;;;;;;;;;;5012007;28;20046;-69
2023/03/15 11:01:21;;;;;;;16.45;6.60;;;;;;;;;;5011837;28;20034;-70
2023/03/15 11:04:05;;;;;;;9.27;5.50;;;;;;;;;;5013248;28;20121;-69
2023/03/15 11:06:36;;;;;;;;;;;;;;;;;;5014013;28;20061;-71
2023/03/15 11:09:36;;;;;;;12.00;6.70;;;;;;;;;;5013025;28;20019;-70
2023/03/15 11:12:06;;;;;;;15.48;7.28;;;;;;;;;;5013156;28;20113;-70
2023/03/15 11:14:43;;;;;;;13.45;6.85;;;;;;;;;;5012993;28;20329;-70
2023/03/15 11:17:22;;;;;;;18.55;6.95;;;;;;;;;;5012759;28;20092;-69
2023/03/15 11:19:52;;;;;;;10.05;5.97;;;;;;;;;;5012641;28;20085;-70
2023/03/15 11:22:18;;;;;;;12.43;6.25;;;;;;;;;;5012347;28;20117;-69
2023/03/15 11:24:44;;;;;;;13.40;6.10;;;;;;;;;;5012347;28;20112;-69
2023/03/15 11:27:12;;;;;;;8.50;5.65;;;;;;;;;;5012342;28;20030;-70
2023/03/15 11:29:42;;;;;;;10.18;6.38;;;;;;;;;;5012328;28;20034;-70
2023/03/15 11:32:24;;;;;;;11.30;5.93;;;;;;;;;;4995286;28;20045;-70
2023/03/15 11:35:06;;;;;;;12.00;5.88;;;;;;;;;;5012147;28;20030;-69
2023/03/15 11:37:41;;;;;;;11.80;6.10;;;;;;;;;;4994164;28;20113;-69
2023/03/15 11:40:37;;;;;;;12.95;5.97;;;;;;;;;;5011300;28;20546;-69
2023/03/15 11:43:02;;;;;;;11.85;5.95;;;;;;;;;;5012214;28;20045;-70
2023/03/15 11:45:33;;;;;;;12.95;7.15;;;;;;;;;;5012211;28;20028;-70
2023/03/15 11:48:35;;;;;;;12.57;6.93;;;;;;;;;;5011732;28;20460;-70
2023/03/15 11:51:01;;;;;;;14.93;6.10;;;;;;;;;;5012166;28;20038;-70
2023/03/15 11:53:34;;;;;;;9.75;5.53;;;;;;;;;;5012066;28;20105;-69
2023/03/15 11:56:27;;;;;;;9.48;5.25;;;;;;;;;;5011902;28;20034;-70
2023/03/15 11:59:27;;;;;;;9.65;5.50;;;;;;;;;;5012287;28;20112;-69
2023/03/15 12:02:08;;;;;;;14.18;5.60;;;;;;;;;;4986059;28;20053;-69
2023/03/15 12:04:34;;;;;;;14.80;5.50;;;;;;;;;;4994670;28;20038;-69
2023/03/15 12:07:15;;;;;;;6.25;4.10;;;;;;;;;;5012629;28;20053;-71
2023/03/15 12:09:51;;;;;;;16.23;7.80;;;;;;;;;;5011935;28;20120;-70
2023/03/15 12:12:23;;;;;;;7.75;4.53;;;;;;;;;;5012031;28;20450;-70
2023/03/15 12:15:18;;;;;;;12.40;3.88;;;;;;;;;;5011808;28;20049;-70
2023/03/15 12:17:55;;;;;;;11.27;3.28;;;;;;;;;;4983378;28;20419;-70
2023/03/15 12:20:33;;;;;;;6.22;3.65;;;;;;;;;;5011935;28;20084;-69
2023/03/15 12:23:17;;;;;;;5.65;3.53;;;;;;;;;;5012187;28;20128;-69
2023/03/15 12:25:54;;;;;;;18.23;5.45;;;;;;;;;;5011595;28;20041;-71
2023/03/15 12:28:27;;;;;;;9.63;3.42;;;;;;;;;;5011497;28;20034;-69
2023/03/15 12:30:57;;;;;;;8.80;3.70;;;;;;;;;;5009689;28;20515;-69
2023/03/15 12:33:25;;;;;;;5.90;2.70;;;;;;;;;;5010510;28;20030;-70
2023/03/15 12:35:59;;;;;;;7.22;2.60;;;;;;;;;;4992507;28;20113;-70
2023/03/15 12:38:34;;;;;;;7.18;2.67;;;;;;;;;;5010611;28;20034;-70
2023/03/15 12:41:07;;;;;;;14.90;4.35;;;;;;;;;;5008636;28;20038;-69
2023/03/15 12:43:51;;;;;;;7.20;3.23;;;;;;;;;;5008951;28;20388;-70
2023/03/15 12:46:35;;;;;;;12.05;3.50;;;;;;;;;;5009978;28;20500;-70
2023/03/15 12:49:27;;;;;;;8.45;2.97;;;;;;;;;;5007656;28;20484;-70
2023/03/15 12:51:58;;;;;;;4.93;2.78;;;;;;;;;;4971064;28;20571;-70
2023/03/15 12:54:37;;;;;;;6.63;2.63;;;;;;;;;;5014798;28;20399;-69
2023/03/15 12:57:04;;;;;;;9.30;3.63;;;;;;;;;;5014402;28;20240;-69
2023/03/15 12:59:42;;;;;;;18.02;4.05;;;;;;;;;;4997060;28;20053;-69
2023/03/15 13:02:28;;;;;;;21.48;4.00;;;;;;;;;;4996970;28;20029;-69
2023/03/15 13:05:19;;;;;;;6.50;2.28;;;;;;;;;;5014774;28;20037;-69
2023/03/15 13:07:57;;;;;;;4.65;2.30;;;;;;;;;;5015028;28;20445;-70
2023/03/15 13:10:42;;;;;;;6.63;2.58;;;;;;;;;;5015145;28;20069;-70
2023/03/15 13:13:27;;;;;;;8.10;3.00;;;;;;;;;;4996845;28;20046;-69
2023/03/15 13:16:14;;;;;;;4.32;2.10;;;;;;;;;;5010632;28;20108;-70
2023/03/15 13:18:58;;;;;;;6.70;3.00;;;;;;;;;;5014113;28;20128;-69
2023/03/15 13:21:36;;;;;;;5.50;2.90;;;;;;;;;;5013949;28;20034;-70
2023/03/15 13:24:09;;;;;;;5.43;2.22;;;;;;;;;;5013871;28;20530;-70
2023/03/15 13:26:51;;;;;;;8.65;2.47;;;;;;;;;;5014541;28;20116;-70
2023/03/15 13:29:25;;;;;;;7.55;2.50;;;;;;;;;;5012260;28;20091;-70
2023/03/15 13:32:14;;;;;;;7.10;3.35;;;;;;;;;;5011266;28;20073;-70
2023/03/15 13:34:45;;;;;;;6.55;2.60;;;;;;;;;;5012816;28;20545;-71
2023/03/15 13:37:24;;;;;;;3.67;2.40;;;;;;;;;;5005704;28;20056;-70
2023/03/15 13:39:56;;;;;;;4.70;2.80;;;;;;;;;;5010210;28;20042;-70
2023/03/15 13:42:23;;;;;;;4.00;2.78;;;;;;;;;;5012683;28;20034;-70
2023/03/15 13:45:07;;;;;;;8.02;3.00;;;;;;;;;;4994085;28;20029;-70
2023/03/15 13:47:34;;;;;;;5.70;3.08;;;;;;;;;;5013706;28;20514;-68
2023/03/15 13:50:05;;;;;;;7.35;2.30;;;;;;;;;;5009127;28;20487;-71
2023/03/15 13:52:31;;;;;;;5.20;2.95;;;;;;;;;;5013522;28;20416;-69
2023/03/15 13:54:58;;;;;;;4.10;2.20;;;;;;;;;;4996084;28;20018;-69
2023/03/15 13:57:23;;;;;;;4.20;2.20;;;;;;;;;;5013413;28;20038;-69
2023/03/15 13:59:53;;;;;;;6.43;2.35;;;;;;;;;;5013986;28;20104;-70
2023/03/15 14:02:25;;;;;;;7.63;3.00;;;;;;;;;;5012813;28;20558;-71
2023/03/15 14:04:57;;;;;;;6.72;2.97;;;;;;;;;;5012393;28;20052;-70
2023/03/15 14:07:38;;;;;;;7.22;3.60;;;;;;;;;;5008127;28;20120;-71
2023/03/15 14:10:30;;;;;;;6.35;3.40;;;;;;;;;;5011930;28;20444;-70
2023/03/15 14:12:58;;;;;;;6.63;3.08;;;;;;;;;;5009114;28;20045;-69
2023/03/15 14:15:23;;;;;;;6.35;3.45;;;;;;;;;;5011225;28;20021;-70
2023/03/15 14:18:19;;;;;;;9.98;4.28;;;;;;;;;;5012792;28;20038;-69
2023/03/15 14:20:52;;;;;;;9.60;3.95;;;;;;;;;;5006491;28;20097;-71
2023/03/15 14:23:23;;;;;;;10.23;4.45;;;;;;;;;;5013195;28;20078;-71
2023/03/15 14:25:54;;;;;;;12.52;4.88;;;;;;;;;;4995434;28;20034;-70
2023/03/15 14:28:20;;;;;;;8.40;3.75;;;;;;;;;;5012936;28;20037;-69
2023/03/15 14:30:55;;;;;;;6.72;2.92;;;;;;;;;;5013351;28;20033;-70
2023/03/15 14:33:31;;;;;;;7.78;3.40;;;;;;;;;;5013249;28;20030;-70
2023/03/15 14:35:59;;;;;;;5.88;3.60;;;;;;;;;;4995580;28;20122;-71
2023/03/15 14:38:31;;;;;;;6.88;3.75;;;;;;;;;;5013633;28;20100;-71
2023/03/15 14:41:17;;;;;;;6.53;4.00;;;;;;;;;;5011384;28;20041;-71
2023/03/15 14:43:43;;;;;;;8.70;4.88;;;;;;;;;;5010632;28;20033;-70
2023/03/15 14:46:08;;;;;;;8.15;4.00;;;;;;;;;;5012886;28;20018;-71
2023/03/15 14:48:35;;;;;;;11.43;4.05;;;;;;;;;;5010616;28;20092;-70
2023/03/15 14:51:02;;;;;;;6.97;3.97;;;;;;;;;;5012102;28;20451;-69
2023/03/15 14:53:34;;;;;;;9.25;4.35;;;;;;;;;;5012166;28;20080;-71
2023/03/15 14:56:00;;;;;;;7.32;4.47;;;;;;;;;;5010195;28;20041;-70
2023/03/15 14:58:25;;;;;;;9.52;4.22;;;;;;;;;;5027286;28;20096;-70